Time;durP1;ratioP1;P1;durP2;ratioP2;P2;SDS_P1;SDS_P2;PMS_P1;PMS_P2;Temp;Humidity;BMP_temperature;BMP_pressure;BME280_temperature;BME280_humidity;BME280_pressure;Samples;Min_cycle;Max_cycle;Signal;HPM_P1;HPM_P2
2021/06/07 00:02:18;;;;;;;12.10;10.52;;;;;;;17.41;69.16;99486.28;4971518;28;20035;-54
2021/06/07 00:04:44;;;;;;;14.80;12.52;;;;;;;17.34;69.28;99483.44;4971087;28;20332;-48
2021/06/07 00:07:10;;;;;;;12.63;11.38;;;;;;;17.27;69.19;99471.66;4971327;28;20051;-48
2021/06/07 00:09:37;;;;;;;13.82;11.52;;;;;;;17.15;69.21;99471.19;4971509;28;20031;-52
2021/06/07 00:12:09;;;;;;;13.05;10.68;;;;;;;17.17;69.21;99482.69;4986534;28;20038;-52
2021/06/07 00:14:35;;;;;;;11.98;10.77;;;;;;;17.22;69.05;99485.69;4970339;28;20121;-52
2021/06/07 00:17:02;;;;;;;11.68;10.50;;;;;;;17.24;69.33;99496.31;4969877;28;20483;-50
2021/06/07 00:19:30;;;;;;;11.82;10.60;;;;;;;17.24;68.73;99493.63;4970508;28;20039;-49
2021/06/07 00:21:57;;;;;;;12.18;10.88;;;;;;;16.85;68.79;99444.72;4969759;28;20043;-51
2021/06/07 00:24:24;;;;;;;12.90;9.75;;;;;;;17.22;68.61;99499.22;4971039;28;20039;-50
2021/06/07 00:26:50;;;;;;;12.68;10.57;;;;;;;17.19;68.67;99486.88;4971619;28;20148;-52
2021/06/07 00:29:15;;;;;;;12.00;10.50;;;;;;;17.22;68.68;99488.41;4971516;28;20161;-50
2021/06/07 00:31:42;;;;;;;12.73;10.70;;;;;;;17.18;68.75;99497.91;4971668;28;20034;-50
2021/06/07 00:34:08;;;;;;;12.65;10.63;;;;;;;17.16;68.99;99486.41;4971448;28;20023;-50
2021/06/07 00:36:35;;;;;;;14.63;10.02;;;;;;;17.14;68.70;99483.03;4971562;28;20197;-52
2021/06/07 00:39:03;;;;;;;12.35;10.02;;;;;;;17.28;68.43;99503.09;4971192;28;20121;-51
2021/06/07 00:41:29;;;;;;;12.35;10.43;;;;;;;17.08;67.99;99471.06;4979061;28;20042;-53
2021/06/07 00:44:00;;;;;;;11.88;10.02;;;;;;;17.25;67.98;99489.94;4990148;28;20177;-52
2021/06/07 00:46:27;;;;;;;12.65;9.70;;;;;;;17.29;67.47;99494.78;4994112;28;20196;-50
2021/06/07 00:48:53;;;;;;;11.35;8.88;;;;;;;17.29;67.42;99496.66;4994592;28;20047;-49
2021/06/07 00:51:20;;;;;;;10.73;8.45;;;;;;;17.24;67.19;99501.75;4993980;28;20046;-53
2021/06/07 00:53:45;;;;;;;10.93;9.52;;;;;;;17.10;67.30;99476.25;4994440;28;20105;-55
2021/06/07 00:56:12;;;;;;;12.80;9.60;;;;;;;17.06;67.88;99484.72;4995210;28;20513;-51
2021/06/07 00:58:41;;;;;;;11.40;9.13;;;;;;;16.74;68.19;99428.88;4994706;28;20117;-53
2021/06/07 01:01:10;;;;;;;11.55;9.40;;;;;;;17.06;68.44;99492.84;4994170;28;20034;-53
2021/06/07 01:03:37;;;;;;;11.10;9.95;;;;;;;16.96;68.58;99488.63;4993875;28;20038;-54
2021/06/07 01:06:03;;;;;;;10.65;9.25;;;;;;;16.86;68.46;99478.00;4994653;28;20088;-50
2021/06/07 01:08:29;;;;;;;12.20;9.75;;;;;;;16.96;68.86;99494.91;4994042;28;20569;-55
2021/06/07 01:10:55;;;;;;;13.02;9.05;;;;;;;16.96;68.76;99502.16;4993574;28;20121;-51
2021/06/07 01:13:22;;;;;;;10.48;9.20;;;;;;;16.89;68.86;99485.78;4993634;28;20042;-50
2021/06/07 01:15:52;;;;;;;11.00;9.68;;;;;;;16.96;68.74;99500.31;4993726;28;20343;-49
2021/06/07 01:18:23;;;;;;;10.25;9.13;;;;;;;16.93;69.02;99504.19;4993924;28;20041;-52
2021/06/07 01:20:50;;;;;;;12.50;10.10;;;;;;;16.90;69.34;99501.00;4993492;28;20040;-50
2021/06/07 01:23:16;;;;;;;10.77;9.68;;;;;;;16.73;69.44;99479.41;4993885;28;20038;-52
2021/06/07 01:25:43;;;;;;;11.77;9.80;;;;;;;16.54;69.26;99452.75;4993527;28;20030;-49
2021/06/07 01:28:12;;;;;;;11.90;10.18;;;;;;;16.92;69.15;99496.25;4993696;28;20089;-48
2021/06/07 01:30:40;;;;;;;12.35;10.38;;;;;;;16.86;69.29;99499.63;4993415;28;20041;-51
2021/06/07 01:33:07;;;;;;;14.05;10.23;;;;;;;16.87;69.46;99512.13;4993007;28;20060;-48
2021/06/07 01:35:33;;;;;;;11.35;9.70;;;;;;;16.60;69.25;99460.16;4990719;28;20062;-51
2021/06/07 01:37:59;;;;;;;11.02;9.63;;;;;;;16.89;69.20;99493.91;4970330;28;20041;-53
2021/06/07 01:40:29;;;;;;;12.88;9.70;;;;;;;16.94;69.03;99502.34;4970070;28;20031;-51
2021/06/07 01:42:55;;;;;;;11.35;9.57;;;;;;;16.92;68.52;99482.75;4972991;28;20031;-52
2021/06/07 01:45:23;;;;;;;10.82;9.73;;;;;;;17.02;68.60;99485.28;4973540;28;20126;-52
2021/06/07 01:47:50;;;;;;;10.80;9.55;;;;;;;17.19;67.35;99500.41;4973647;28;20501;-50
2021/06/07 01:50:16;;;;;;;10.90;9.13;;;;;;;17.22;67.19;99499.22;4974072;28;20055;-52
2021/06/07 01:52:46;;;;;;;11.50;9.50;;;;;;;17.20;67.42;99485.03;4973875;28;20090;-49
2021/06/07 01:55:11;;;;;;;12.70;9.45;;;;;;;17.32;67.17;99489.03;4988354;28;20070;-52
2021/06/07 01:57:37;;;;;;;11.77;9.65;;;;;;;17.36;67.09;99494.94;4973365;28;20113;-51
2021/06/07 02:00:07;;;;;;;12.32;9.57;;;;;;;17.41;67.75;99497.13;4973502;28;20076;-48
2021/06/07 02:02:34;;;;;;;11.57;9.45;;;;;;;17.40;67.51;99496.25;4973406;28;20030;-51
2021/06/07 02:04:59;;;;;;;10.23;9.23;;;;;;;17.43;67.11;99501.31;4988750;28;20046;-53
2021/06/07 02:07:25;;;;;;;12.20;9.25;;;;;;;17.48;67.02;99501.66;4973324;28;20363;-50
2021/06/07 02:09:50;;;;;;;11.70;9.25;;;;;;;17.54;66.80;99502.78;4973173;28;20035;-48
2021/06/07 02:12:16;;;;;;;9.98;9.02;;;;;;;17.26;66.68;99440.22;4972754;28;20162;-51
2021/06/07 02:14:41;;;;;;;10.30;9.23;;;;;;;17.54;66.26;99481.13;4973208;28;20414;-48
2021/06/07 02:17:06;;;;;;;15.07;10.70;;;;;;;17.79;66.04;99510.75;4973089;28;20038;-47
2021/06/07 02:19:32;;;;;;;14.15;10.70;;;;;;;17.41;65.71;99429.47;4973109;28;20406;-47
2021/06/07 02:21:57;;;;;;;13.35;10.55;;;;;;;17.94;65.62;99511.69;4973391;28;20034;-46
2021/06/07 02:24:23;;;;;;;11.73;10.50;;;;;;;18.06;65.44;99509.44;4972370;28;20534;-48
2021/06/07 02:26:48;;;;;;;14.55;11.10;;;;;;;17.81;65.22;99454.56;4973093;28;20047;-53
2021/06/07 02:29:14;;;;;;;12.88;11.25;;;;;;;18.25;64.76;99501.00;4972664;28;20134;-53
2021/06/07 02:31:43;;;;;;;12.57;11.27;;;;;;;18.39;64.45;99510.19;4972908;28;20039;-50
2021/06/07 02:34:11;;;;;;;12.25;11.05;;;;;;;18.47;64.27;99513.69;4973071;28;20034;-51
2021/06/07 02:36:39;;;;;;;13.25;11.35;;;;;;;18.38;63.82;99470.56;4972706;28;20066;-49
2021/06/07 02:39:08;;;;;;;14.65;11.70;;;;;;;18.55;63.64;99485.66;4972535;28;20070;-49
2021/06/07 02:41:33;;;;;;;13.18;11.75;;;;;;;18.75;63.43;99496.78;4972948;28;20062;-51
2021/06/07 02:43:59;;;;;;;13.48;12.07;;;;;;;18.88;63.14;99507.00;4972880;28;20074;-49
2021/06/07 02:46:24;;;;;;;13.57;12.18;;;;;;;19.02;62.74;99502.63;4972173;28;20041;-53
2021/06/07 02:48:50;;;;;;;13.65;11.52;;;;;;;19.06;62.04;99489.53;4972832;28;20073;-50
2021/06/07 02:51:16;;;;;;;11.98;10.77;;;;;;;19.41;61.22;99505.25;4972894;28;20486;-52
2021/06/07 02:53:42;;;;;;;13.57;10.48;;;;;;;19.57;60.28;99479.72;4973032;28;20146;-50
2021/06/07 02:56:08;;;;;;;13.13;9.93;;;;;;;19.88;59.24;99500.31;4972038;28;20140;-53
2021/06/07 02:58:33;;;;;;;12.68;9.95;;;;;;;19.77;57.92;99456.34;4972163;28;20035;-49
2021/06/07 03:01:06;;;;;;;13.57;10.27;;;;;;;20.23;57.40;99501.34;4972674;28;20117;-49
2021/06/07 03:03:32;;;;;;;10.15;9.15;;;;;;;20.41;56.88;99500.03;4972524;28;20038;-51
2021/06/07 03:05:58;;;;;;;10.65;9.48;;;;;;;20.57;56.36;99492.63;5003106;28;20038;-52
2021/06/07 03:08:26;;;;;;;10.00;8.98;;;;;;;20.74;55.19;99502.19;4971246;28;20026;-53
2021/06/07 03:10:55;;;;;;;10.90;8.63;;;;;;;20.89;54.67;99509.41;4972312;28;20348;-51
2021/06/07 03:13:21;;;;;;;10.30;9.13;;;;;;;20.93;54.22;99499.78;4972229;28;20574;-50
2021/06/07 03:15:47;;;;;;;10.52;9.43;;;;;;;20.89;53.67;99526.59;4972083;28;20066;-48
2021/06/07 03:18:13;;;;;;;8.80;7.75;;;;;;;20.72;53.65;99485.19;4971740;28;20031;-51
2021/06/07 03:20:39;;;;;;;10.98;8.07;;;;;;;20.86;53.60;99501.66;4971876;28;20042;-48
2021/06/07 03:23:11;;;;;;;8.30;7.38;;;;;;;20.97;52.95;99500.25;4971834;28;20451;-48
2021/06/07 03:25:38;;;;;;;10.40;8.77;;;;;;;21.08;53.04;99497.81;4972195;28;20038;-49
2021/06/07 03:28:04;;;;;;;8.82;8.00;;;;;;;21.29;52.53;99496.03;4971833;28;20121;-52
2021/06/07 03:30:30;;;;;;;8.65;7.75;;;;;;;21.57;51.55;99495.09;4971945;28;20038;-49
2021/06/07 03:32:56;;;;;;;9.25;7.97;;;;;;;21.93;50.69;99493.94;4971636;28;20038;-48
2021/06/07 03:35:22;;;;;;;9.23;8.30;;;;;;;22.03;49.81;99458.09;4971982;28;20034;-52
2021/06/07 03:37:48;;;;;;;9.35;7.63;;;;;;;22.56;48.92;99494.66;4971772;28;20069;-53
2021/06/07 03:40:17;;;;;;;8.88;7.90;;;;;;;22.68;48.27;99488.56;4971602;28;20062;-56
2021/06/07 03:42:44;;;;;;;8.55;7.13;;;;;;;22.75;47.55;99498.41;4971496;28;20137;-48
2021/06/07 03:45:10;;;;;;;7.50;6.80;;;;;;;22.80;47.57;99492.31;4971852;28;20072;-49
2021/06/07 03:47:36;;;;;;;9.85;7.18;;;;;;;22.93;47.32;99489.56;4971084;28;20394;-47
2021/06/07 03:50:04;;;;;;;9.55;7.32;;;;;;;23.22;46.76;99502.94;4971316;28;20063;-48
2021/06/07 03:52:29;;;;;;;7.00;6.38;;;;;;;23.51;45.57;99482.47;4971947;28;20470;-46
2021/06/07 03:54:55;;;;;;;7.45;6.43;;;;;;;23.64;44.76;99480.72;4971064;28;20486;-47
2021/06/07 03:57:20;;;;;;;8.80;7.00;;;;;;;23.85;44.56;99487.72;4971070;28;20041;-47
2021/06/07 03:59:46;;;;;;;8.30;6.55;;;;;;;23.68;44.64;99453.78;4971473;28;20121;-50
2021/06/07 04:02:13;;;;;;;7.47;6.57;;;;;;;23.88;44.26;99489.19;4971270;28;20077;-51
2021/06/07 04:04:40;;;;;;;6.80;4.95;;;;;;;23.92;44.03;99494.00;4970658;28;20079;-48
2021/06/07 04:07:06;;;;;;;5.63;4.72;;;;;;;23.98;43.28;99488.72;4971327;28;20384;-50
2021/06/07 04:09:32;;;;;;;4.70;3.80;;;;;;;24.08;42.58;99483.59;4971710;28;20133;-54
2021/06/07 04:11:58;;;;;;;4.43;3.90;;;;;;;24.19;42.23;99482.91;4971162;28;20122;-53
2021/06/07 04:14:23;;;;;;;4.13;3.80;;;;;;;24.41;41.72;99485.25;4971136;28;20482;-50
2021/06/07 04:16:49;;;;;;;4.95;3.97;;;;;;;24.57;41.23;99496.69;4971486;28;20042;-55
2021/06/07 04:19:14;;;;;;;3.80;3.50;;;;;;;24.67;40.57;99483.34;4971588;28;20034;-55
2021/06/07 04:21:40;;;;;;;4.35;3.95;;;;;;;24.78;40.24;99490.84;4970313;28;20069;-54
2021/06/07 04:24:07;;;;;;;4.80;4.40;;;;;;;24.93;39.95;99492.38;4971084;28;20402;-52
2021/06/07 04:26:33;;;;;;;4.90;4.40;;;;;;;25.22;39.56;99485.31;4971339;28;20451;-47
2021/06/07 04:28:59;;;;;;;5.15;4.38;;;;;;;25.38;38.84;99474.78;4971549;28;20031;-48
2021/06/07 04:31:25;;;;;;;4.20;3.80;;;;;;;25.56;38.39;99473.13;4971282;28;20098;-53
2021/06/07 04:33:51;;;;;;;5.88;3.53;;;;;;;25.85;37.48;99490.66;4970709;28;20039;-49
2021/06/07 04:36:16;;;;;;;5.10;3.05;;;;;;;25.99;36.70;99477.56;4971270;28;20446;-54
2021/06/07 04:38:42;;;;;;;5.00;3.70;;;;;;;26.30;35.82;99483.03;4971283;28;20045;-54
2021/06/07 04:41:07;;;;;;;3.80;3.40;;;;;;;26.95;35.15;99500.50;4970695;28;20039;-52
2021/06/07 04:43:33;;;;;;;5.30;2.83;;;;;;;28.21;32.95;99489.00;4970679;28;20061;-50
2021/06/07 04:45:58;;;;;;;3.42;3.08;;;;;;;29.63;30.87;99497.09;4971233;28;20477;-55
2021/06/07 04:48:24;;;;;;;6.35;3.80;;;;;;;30.61;28.61;99450.22;4971511;28;20038;-49
2021/06/07 04:50:51;;;;;;;5.07;4.38;;;;;;;31.81;27.00;99498.63;4971452;28;20493;-54
2021/06/07 04:53:17;;;;;;;4.43;4.00;;;;;;;32.19;26.47;99482.59;4970721;28;20499;-48
2021/06/07 04:55:44;;;;;;;6.50;3.95;;;;;;;32.37;26.48;99497.91;5002255;28;20030;-48
2021/06/07 04:58:20;;;;;;;4.15;3.70;;;;;;;32.49;25.71;99509.50;4970895;28;20149;-49
2021/06/07 05:00:46;;;;;;;;;;;;;;;33.41;26.06;99501.28;4971382;28;20442;-49
2021/06/07 05:03:12;;;;;;;7.63;3.20;;;;;;;32.68;25.83;99495.09;4970248;28;19929;-53
2021/06/07 05:05:38;;;;;;;4.18;2.85;;;;;;;32.49;25.63;99505.91;4971128;28;20035;-49
2021/06/07 05:08:04;;;;;;;3.33;2.42;;;;;;;32.47;25.36;99459.09;4971380;28;20043;-51
2021/06/07 05:10:30;;;;;;;4.40;2.25;;;;;;;32.06;25.88;99495.06;5002302;28;20541;-54
2021/06/07 05:12:56;;;;;;;2.95;2.15;;;;;;;31.63;25.94;99493.31;4970858;28;20035;-51
2021/06/07 05:15:22;;;;;;;2.78;2.40;;;;;;;31.49;26.42;99512.38;4970652;28;20052;-50
2021/06/07 05:17:47;;;;;;;4.25;2.30;;;;;;;31.04;27.01;99503.53;4970526;28;20042;-53
2021/06/07 05:20:19;;;;;;;1.92;1.67;;;;;;;30.53;28.01;99517.00;4970669;28;20615;-53
2021/06/07 05:22:45;;;;;;;3.15;1.98;;;;;;;29.79;29.22;99522.91;4970157;28;20042;-52
2021/06/07 05:25:11;;;;;;;4.32;2.85;;;;;;;29.02;30.15;99500.69;4970562;28;20022;-52
2021/06/07 05:27:46;;;;;;;2.78;2.20;;;;;;;28.35;31.43;99511.50;4970613;28;20047;-53
2021/06/07 05:30:12;;;;;;;7.53;2.53;;;;;;;27.67;32.25;99527.84;4970221;28;20089;-53
2021/06/07 05:32:38;;;;;;;4.38;2.85;;;;;;;27.26;33.01;99533.31;4973467;28;20043;-49
2021/06/07 05:35:06;;;;;;;4.47;2.60;;;;;;;26.83;34.12;99525.19;4988924;28;20501;-50
2021/06/07 05:37:32;;;;;;;5.78;3.20;;;;;;;26.45;34.04;99512.78;4973417;28;20072;-51
2021/06/07 05:39:57;;;;;;;2.42;2.22;;;;;;;26.02;34.70;99511.91;4974515;28;20063;-50
2021/06/07 05:42:23;;;;;;;3.05;2.28;;;;;;;25.77;35.50;99523.84;4973628;28;20069;-48
2021/06/07 05:44:48;;;;;;;4.53;2.47;;;;;;;25.69;36.02;99537.91;4973635;28;20477;-52
2021/06/07 05:47:14;;;;;;;3.45;2.40;;;;;;;25.64;35.63;99512.03;4974106;28;20406;-50
2021/06/07 05:49:39;;;;;;;4.85;2.65;;;;;;;25.84;36.02;99518.28;4973700;28;20054;-50
2021/06/07 05:52:07;;;;;;;3.50;2.72;;;;;;;26.09;35.48;99523.63;4973715;28;20073;-49
2021/06/07 05:54:33;;;;;;;4.90;3.10;;;;;;;26.43;34.75;99526.72;4973697;28;20043;-57
2021/06/07 05:56:59;;;;;;;4.32;3.40;;;;;;;26.93;33.78;99519.13;4974067;28;20034;-50
2021/06/07 05:59:24;;;;;;;3.30;3.00;;;;;;;27.19;34.01;99511.44;5004703;28;20062;-49
2021/06/07 06:01:50;;;;;;;3.15;2.85;;;;;;;27.39;33.36;99516.56;4973095;28;20047;-51
2021/06/07 06:04:15;;;;;;;7.28;3.30;;;;;;;27.29;33.48;99519.94;4973766;28;20344;-49
2021/06/07 06:06:40;;;;;;;3.75;3.33;;;;;;;27.28;33.88;99514.66;4973638;28;20070;-50
2021/06/07 06:09:06;;;;;;;3.35;2.47;;;;;;;27.35;33.28;99513.47;4973116;28;20034;-55
2021/06/07 06:11:32;;;;;;;2.85;2.50;;;;;;;27.39;33.15;99510.22;4973652;28;20483;-50
2021/06/07 06:13:57;;;;;;;3.83;2.40;;;;;;;27.36;32.53;99484.03;4973541;28;20042;-53
2021/06/07 06:16:23;;;;;;;3.20;2.47;;;;;;;27.44;32.40;99529.56;4972748;28;21162;-50
2021/06/07 06:18:49;;;;;;;2.30;2.10;;;;;;;26.99;32.67;99467.91;4973140;28;20039;-56
2021/06/07 06:21:15;;;;;;;4.65;2.33;;;;;;;27.30;33.22;99512.50;4973329;28;20133;-51
2021/06/07 06:23:41;;;;;;;3.30;2.25;;;;;;;27.11;33.76;99517.31;4973365;28;20517;-54
2021/06/07 06:26:08;;;;;;;2.60;2.40;;;;;;;27.00;33.73;99519.84;4973419;28;20050;-55
2021/06/07 06:28:35;;;;;;;4.43;2.80;;;;;;;27.13;34.00;99531.66;4972458;28;20078;-54
2021/06/07 06:31:06;;;;;;;4.53;2.60;;;;;;;27.55;33.25;99525.13;4973127;28;20038;-54
2021/06/07 06:33:32;;;;;;;3.17;2.85;;;;;;;28.42;31.69;99495.66;4973491;28;20079;-51
2021/06/07 06:35:58;;;;;;;3.60;2.72;;;;;;;29.95;29.82;99510.09;4973006;28;20050;-51
2021/06/07 06:38:24;;;;;;;5.55;2.60;;;;;;;30.31;28.98;99518.78;4972572;28;20074;-57
2021/06/07 06:40:52;;;;;;;6.32;2.33;;;;;;;30.00;29.23;99520.38;4971885;28;20038;-53
2021/06/07 06:43:18;;;;;;;6.35;2.08;;;;;;;29.37;29.90;99522.41;4970574;28;20035;-52
2021/06/07 06:45:44;;;;;;;2.58;1.70;;;;;;;28.55;30.32;99496.41;4971598;28;20336;-50
2021/06/07 06:48:09;;;;;;;3.75;1.98;;;;;;;27.61;31.83;99518.66;4971323;28;20486;-51
2021/06/07 06:50:39;;;;;;;1.77;1.65;;;;;;;26.55;33.31;99528.66;4971734;28;20054;-55
2021/06/07 06:53:11;;;;;;;3.78;1.80;;;;;;;25.73;35.67;99528.13;4971998;28;20034;-55
2021/06/07 06:55:37;;;;;;;2.83;2.33;;;;;;;25.51;36.76;99521.25;4970090;28;20034;-53
2021/06/07 06:58:03;;;;;;;4.50;2.20;;;;;;;25.39;36.88;99505.78;4971524;28;20049;-50
2021/06/07 07:00:35;;;;;;;4.95;2.08;;;;;;;25.46;36.85;99532.03;4984195;28;20038;-54
2021/06/07 07:03:01;;;;;;;5.43;2.50;;;;;;;24.90;37.11;99466.28;4972753;28;20121;-50
2021/06/07 07:05:26;;;;;;;3.45;2.30;;;;;;;25.18;37.56;99525.16;4970222;28;20146;-49
2021/06/07 07:07:52;;;;;;;3.28;2.30;;;;;;;24.93;38.00;99454.06;4971814;28;20406;-55
2021/06/07 07:10:17;;;;;;;3.45;2.10;;;;;;;25.45;37.52;99521.28;4972271;28;20053;-53
2021/06/07 07:12:43;;;;;;;5.47;2.92;;;;;;;25.40;36.74;99477.31;4972383;28;20174;-54
2021/06/07 07:15:09;;;;;;;4.03;3.63;;;;;;;25.87;36.73;99534.28;4971695;28;20042;-50
2021/06/07 07:17:34;;;;;;;7.28;3.30;;;;;;;25.89;36.56;99529.38;4971720;28;20038;-53
2021/06/07 07:19:59;;;;;;;6.60;2.95;;;;;;;26.30;36.09;99535.19;4971914;28;20047;-61
2021/06/07 07:22:27;;;;;;;6.85;2.63;;;;;;;27.36;34.22;99523.38;4966602;28;20042;-59
2021/06/07 07:24:52;;;;;;;4.10;2.80;;;;;;;29.50;30.97;99517.63;4984116;28;20138;-59
2021/06/07 07:27:19;;;;;;;3.45;2.17;;;;;;;33.64;25.74;99519.22;4970679;28;20046;-57
2021/06/07 07:29:45;;;;;;;4.63;2.08;;;;;;;36.08;22.25;99527.97;4971868;28;20564;-58
2021/06/07 07:32:11;;;;;;;3.28;1.83;;;;;;;37.75;20.18;99516.28;4964824;28;20054;-55
2021/06/07 07:34:37;;;;;;;6.70;2.33;;;;;;;39.68;17.82;99528.88;4970729;28;20061;-57
2021/06/07 07:37:09;;;;;;;2.85;2.10;;;;;;;40.78;16.70;99530.69;4969046;28;20073;-53
2021/06/07 07:39:34;;;;;;;2.88;2.20;;;;;;;39.85;16.91;99531.75;4976472;28;20039;-57
2021/06/07 07:42:00;;;;;;;2.50;2.30;;;;;;;38.70;18.24;99536.06;4971752;28;20402;-55
2021/06/07 07:44:26;;;;;;;4.15;2.42;;;;;;;37.95;18.32;99530.06;4971710;28;20027;-53
2021/06/07 07:46:52;;;;;;;5.50;3.20;;;;;;;37.99;18.11;99525.53;4971081;28;20474;-54
2021/06/07 07:49:20;;;;;;;3.95;3.03;;;;;;;38.56;18.08;99527.78;4971008;28;20183;-53
2021/06/07 07:51:46;;;;;;;4.85;2.80;;;;;;;40.24;16.90;99517.03;4970936;28;20050;-59
2021/06/07 07:54:12;;;;;;;5.78;3.30;;;;;;;41.93;15.65;99516.00;4970140;28;20046;-54
2021/06/07 07:56:39;;;;;;;3.58;3.15;;;;;;;44.10;13.70;99526.09;4965917;28;20054;-54
2021/06/07 07:59:05;;;;;;;2.80;2.47;;;;;;;42.57;13.68;99486.66;4969524;28;20050;-52
2021/06/07 08:01:31;;;;;;;3.42;2.25;;;;;;;39.78;16.57;99531.38;4967744;28;20047;-54
2021/06/07 08:03:57;;;;;;;4.68;2.35;;;;;;;38.93;17.42;99526.81;4984738;28;20042;-54
2021/06/07 08:06:23;;;;;;;2.35;2.15;;;;;;;39.46;17.09;99527.88;4969501;28;20038;-53
2021/06/07 08:08:48;;;;;;;4.00;2.67;;;;;;;39.00;17.25;99530.81;4967869;28;20138;-56
2021/06/07 08:11:14;;;;;;;4.85;2.60;;;;;;;38.95;17.38;99510.53;4968146;28;20077;-53
2021/06/07 08:13:40;;;;;;;3.40;2.50;;;;;;;39.17;16.82;99523.63;4969311;28;20428;-50
2021/06/07 08:16:06;;;;;;;7.40;3.20;;;;;;;38.59;17.17;99485.19;4970510;28;20089;-54
2021/06/07 08:18:32;;;;;;;3.42;2.88;;;;;;;38.57;17.79;99517.41;4969932;28;20041;-52
2021/06/07 08:20:57;;;;;;;5.63;2.88;;;;;;;37.29;18.60;99478.16;4978559;28;20035;-56
2021/06/07 08:23:23;;;;;;;3.85;2.80;;;;;;;35.81;20.78;99464.56;4970314;28;20042;-54
2021/06/07 08:25:48;;;;;;;5.53;3.00;;;;;;;34.92;22.11;99492.66;4968628;28;20494;-52
2021/06/07 08:28:14;;;;;;;4.93;3.00;;;;;;;33.94;23.40;99491.56;4968355;28;20125;-55
2021/06/07 08:30:40;;;;;;;5.75;3.13;;;;;;;32.61;24.95;99513.94;4969577;28;20140;-55
2021/06/07 08:33:06;;;;;;;4.60;2.88;;;;;;;30.57;27.30;99483.06;4970671;28;20046;-55
2021/06/07 08:35:32;;;;;;;6.82;3.00;;;;;;;29.47;29.53;99515.38;4969538;28;20034;-54
2021/06/07 08:37:58;;;;;;;4.30;2.30;;;;;;;28.90;29.29;99500.81;4970157;28;20066;-53
2021/06/07 08:40:23;;;;;;;3.78;2.67;;;;;;;27.87;31.61;99499.94;4970711;28;20537;-57
2021/06/07 08:42:49;;;;;;;4.70;2.20;;;;;;;27.09;32.60;99501.06;4970443;28;20034;-56
2021/06/07 08:45:18;;;;;;;3.15;2.35;;;;;;;26.45;33.30;99438.66;4968126;28;20035;-59
2021/06/07 08:47:46;;;;;;;5.30;2.40;;;;;;;26.59;33.57;99489.50;4970092;28;20042;-59
2021/06/07 08:50:13;;;;;;;3.08;2.45;;;;;;;26.72;33.28;99504.88;4970103;28;20101;-51
2021/06/07 08:52:43;;;;;;;4.03;2.80;;;;;;;26.39;34.21;99478.00;4970386;28;20050;-53
2021/06/07 08:55:13;;;;;;;4.50;2.53;;;;;;;26.35;34.60;99505.13;4971654;28;20457;-52
2021/06/07 08:57:42;;;;;;;2.97;2.70;;;;;;;25.98;35.37;99494.25;4967959;28;20517;-51
2021/06/07 09:00:10;;;;;;;6.45;4.10;;;;;;;25.97;36.12;99506.28;4969903;28;20031;-54
2021/06/07 09:02:37;;;;;;;6.32;4.18;;;;;;;26.25;35.78;99496.59;4968479;28;20049;-54
2021/06/07 09:05:04;;;;;;;4.65;3.70;;;;;;;25.83;35.97;99451.66;4969237;28;20030;-52
2021/06/07 09:07:30;;;;;;;4.88;3.85;;;;;;;26.42;36.08;99489.38;4967992;28;20066;-51
2021/06/07 09:10:04;;;;;;;6.80;3.40;;;;;;;26.81;35.29;99497.13;4964844;28;20117;-51
2021/06/07 09:12:30;;;;;;;4.60;3.60;;;;;;;27.17;34.77;99484.22;4968303;28;20057;-50
2021/06/07 09:14:56;;;;;;;8.13;2.95;;;;;;;27.34;34.28;99492.53;4969702;28;20039;-53
2021/06/07 09:17:25;;;;;;;7.65;3.20;;;;;;;27.34;34.29;99480.69;4972694;28;20046;-54
2021/06/07 09:20:09;;;;;;;5.80;3.08;;;;;;;27.15;33.42;99486.38;4970361;28;20039;-55
2021/06/07 09:22:35;;;;;;;3.58;3.28;;;;;;;26.65;33.98;99485.81;4971128;28;20035;-55
2021/06/07 09:25:07;;;;;;;3.80;2.67;;;;;;;26.49;34.71;99484.59;4972676;28;20038;-56
2021/06/07 09:27:33;;;;;;;7.07;3.15;;;;;;;26.43;35.71;99477.31;4970410;28;20170;-53
2021/06/07 09:30:00;;;;;;;3.72;3.00;;;;;;;26.31;35.56;99462.75;4972626;28;20042;-51
2021/06/07 09:32:26;;;;;;;4.03;2.65;;;;;;;26.34;34.66;99463.09;4972689;28;20450;-55
2021/06/07 09:35:10;;;;;;;2.13;2.00;;;;;;;26.31;33.78;99471.00;4971008;28;20031;-57
2021/06/07 09:37:36;;;;;;;1.90;1.50;;;;;;;25.90;34.22;99462.50;4973030;28;20402;-52
2021/06/07 09:40:21;;;;;;;3.42;1.58;;;;;;;25.75;34.67;99460.19;4971018;28;20574;-51
2021/06/07 09:42:57;;;;;;;2.50;1.33;;;;;;;25.69;34.28;99451.03;4968411;28;20038;-54
2021/06/07 09:45:54;;;;;;;2.97;1.20;;;;;;;25.65;34.27;99455.28;4968507;28;20035;-55
2021/06/07 09:48:19;;;;;;;3.13;1.08;;;;;;;25.71;33.48;99448.88;4969458;28;20158;-56
2021/06/07 09:51:02;;;;;;;2.78;1.13;;;;;;;25.51;34.22;99449.13;4972045;28;20055;-55
2021/06/07 09:53:55;;;;;;;1.50;0.93;;;;;;;25.51;34.24;99440.91;4970745;28;20181;-51
2021/06/07 09:56:22;;;;;;;2.00;1.00;;;;;;;25.49;35.04;99434.84;4972124;28;20026;-52
2021/06/07 09:58:48;;;;;;;1.27;1.17;;;;;;;25.50;34.62;99436.50;4972180;28;20078;-58
2021/06/07 10:01:17;;;;;;;2.38;1.30;;;;;;;25.11;35.18;99362.00;4971970;28;20038;-56
2021/06/07 10:03:50;;;;;;;1.85;1.35;;;;;;;25.55;34.43;99405.66;4971213;28;20410;-51
2021/06/07 10:06:17;;;;;;;3.42;1.30;;;;;;;25.65;34.57;99425.13;4962663;28;20203;-53
2021/06/07 10:08:49;;;;;;;4.53;1.55;;;;;;;25.63;34.97;99424.50;4972822;28;20023;-56
2021/06/07 10:11:29;;;;;;;2.13;1.17;;;;;;;25.80;34.92;99425.53;4972221;28;20087;-52
2021/06/07 10:14:19;;;;;;;2.05;1.35;;;;;;;25.88;34.27;99424.34;4972659;28;20109;-53
2021/06/07 10:17:00;;;;;;;1.55;1.23;;;;;;;25.88;34.10;99418.88;4972255;28;20039;-51
2021/06/07 10:19:32;;;;;;;3.28;1.38;;;;;;;25.86;34.29;99412.78;4971797;28;20061;-53
2021/06/07 10:22:00;;;;;;;2.42;1.55;;;;;;;25.83;34.19;99406.94;4972372;28;20479;-55
2021/06/07 10:24:26;;;;;;;1.70;1.15;;;;;;;25.91;35.26;99409.31;4971830;28;20114;-51
2021/06/07 10:26:51;;;;;;;3.72;1.50;;;;;;;26.20;34.85;99413.09;4972035;28;20138;-56
2021/06/07 10:29:17;;;;;;;2.58;1.40;;;;;;;26.58;34.26;99402.72;4971685;28;20093;-49
2021/06/07 10:31:43;;;;;;;3.45;1.20;;;;;;;26.92;33.77;99402.94;4972288;28;20038;-63
2021/06/07 10:34:10;;;;;;;2.72;1.50;;;;;;;27.01;33.55;99361.34;4971256;28;20034;-58
2021/06/07 10:36:38;;;;;;;3.40;1.90;;;;;;;27.33;33.77;99396.56;4972033;28;20035;-56
2021/06/07 10:39:13;;;;;;;7.05;1.85;;;;;;;27.52;33.37;99400.00;4971555;28;20936;-61
2021/06/07 10:41:40;;;;;;;3.33;2.10;;;;;;;27.30;33.74;99395.19;4971801;28;20039;-61
2021/06/07 10:44:06;;;;;;;4.20;2.13;;;;;;;27.08;33.77;99406.84;4972049;28;20129;-58
2021/06/07 10:46:41;;;;;;;3.58;2.05;;;;;;;26.68;34.19;99351.88;4967574;28;20042;-56
2021/06/07 10:49:37;;;;;;;2.42;2.22;;;;;;;27.15;33.98;99394.88;4968419;28;20113;-56
2021/06/07 10:52:08;;;;;;;2.75;2.17;;;;;;;27.11;33.62;99388.19;4957266;28;20577;-60
2021/06/07 10:54:37;;;;;;;2.65;2.17;;;;;;;27.08;33.86;99382.09;4971500;28;20039;-55
2021/06/07 10:57:35;;;;;;;3.15;2.33;;;;;;;27.46;33.43;99400.94;4971363;28;20066;-55
2021/06/07 11:00:38;;;;;;;2.53;2.03;;;;;;;27.39;32.79;99398.38;4957918;28;20395;-52
2021/06/07 11:03:13;;;;;;;2.20;2.05;;;;;;;27.43;32.65;99388.53;4971534;28;20193;-53
2021/06/07 11:05:39;;;;;;;2.80;2.10;;;;;;;27.20;32.49;99342.75;4971452;28;20410;-54
2021/06/07 11:08:11;;;;;;;1.88;1.75;;;;;;;27.43;32.56;99380.31;4971426;28;20042;-57
2021/06/07 11:10:42;;;;;;;2.25;1.98;;;;;;;27.57;32.26;99371.75;4971093;28;20517;-55
2021/06/07 11:13:11;;;;;;;2.63;1.88;;;;;;;27.72;32.03;99382.19;4970600;28;20409;-51
2021/06/07 11:15:50;;;;;;;1.98;1.77;;;;;;;27.67;31.83;99363.72;4971452;28;20042;-51
2021/06/07 11:18:27;;;;;;;3.90;1.63;;;;;;;27.78;31.66;99372.97;4971296;28;20034;-55
2021/06/07 11:21:16;;;;;;;4.30;1.80;;;;;;;27.56;30.67;99373.69;4968888;28;20096;-50
2021/06/07 11:23:43;;;;;;;2.95;1.92;;;;;;;27.44;31.64;99383.88;4953344;28;20042;-53
2021/06/07 11:26:11;;;;;;;3.17;1.75;;;;;;;27.30;31.76;99378.69;4971445;28;20042;-52
2021/06/07 11:28:50;;;;;;;1.83;1.60;;;;;;;27.20;31.57;99368.34;4968689;28;20495;-51
2021/06/07 11:31:15;;;;;;;3.92;1.85;;;;;;;27.00;32.10;99374.22;4970939;28;20096;-66
2021/06/07 11:33:57;;;;;;;3.40;2.25;;;;;;;26.77;32.98;99367.72;4971708;28;20118;-57